Terminal Aerodrome Forecast
Issued by NWS

Home | Current Version | Previous Version | Text Only | Print | Product List | Glossary On
Versions: 1 2 3 4 5 6 7 8 9 10 11 12 13 14 15 16 17
130
FTUS41 KLWX 292320
TAFMTN
TAF
KMTN 292320Z 3000/3024 36004KT P6SM BKN130
     FM301300 11004KT P6SM BKN050
     FM301500 13005KT P6SM SHRA BKN035
     FM301600 13005KT P6SM SHRA BKN030
     FM301800 14006KT P6SM SHRA VCTS BKN030CB
      AMD NOT SKED 3002/3012=

USA.gov is the U.S. government's official web portal to all federal, state and local government web resources and services.